»·PEaware :: SWA2030 KOAK-KRNO

SWA2030 :: KOAK-KRNO

FLIGHT INFORMATION

Flight Status: Arrived
Operator:
Southwest Airlines
More flights by this operator :: More flights under this callsign
Pilot: David J. (24489)
Aircraft: BOEING 737-800
(B738)
More flights by this aircraft type
Origin: KOAK Metro Oakland Intl
United States
Destination: KRNO Reno/Tahoe Intl
United States
More flights between these airports :: More routes between these airports
Route: OAK4 OAK SAC SIER3
File this flight plan on PilotEdge
Remarks: RMK / SIMBRIEF
Altitude:
(Current/Filed)
25,000ft
Speed:
(Current/Filed)
429kts
Departed: 14-Jan-20 10:17 PM
Arrived: 14-Jan-20 10:50 PM
Distance/Time
Traveled:
157nm/0:33
Distance/Time
To Go:
Arrived

Flight Plot

Page will automatically refresh every two minutes.


Map Options




Map Legend


Flown Route
Filed Route
Departure Airport
Arrival Airport
Navaid (VOR, NDB)
Fix

Horizontal Profiles

Position Reports

Time Latitude Longitude Heading Altitude Ground
Speed
14-Jan-20 21:45 37.711288 -122.216062 307 13ft 0kts
14-Jan-20 21:46 37.711288 -122.216062 307 13ft 0kts
14-Jan-20 21:47 37.711288 -122.216062 307 13ft 0kts
14-Jan-20 21:48 37.711288 -122.216062 307 13ft 0kts
14-Jan-20 21:49 37.711288 -122.216062 307 13ft 0kts
14-Jan-20 21:50 37.711288 -122.216062 307 13ft 0kts
14-Jan-20 21:50 37.711288 -122.216062 307 14ft 0kts
14-Jan-20 21:52 37.711288 -122.216062 307 14ft 0kts
14-Jan-20 21:53 37.711288 -122.216062 307 14ft 0kts
14-Jan-20 21:53 37.711288 -122.216062 307 14ft 0kts
14-Jan-20 21:54 37.711288 -122.216062 307 14ft 0kts
14-Jan-20 21:55 37.711288 -122.216062 307 14ft 0kts
14-Jan-20 21:56 37.711288 -122.216062 307 14ft 0kts
14-Jan-20 21:57 37.711288 -122.216062 307 14ft 0kts
14-Jan-20 21:58 37.711288 -122.216062 307 14ft 0kts
14-Jan-20 21:59 37.711288 -122.216062 307 14ft 0kts
14-Jan-20 22:00 37.711288 -122.216062 307 14ft 0kts
14-Jan-20 22:01 37.711288 -122.216062 307 14ft 0kts
14-Jan-20 22:02 37.711288 -122.216062 307 14ft 0kts
14-Jan-20 22:03 37.711288 -122.216062 307 14ft 0kts
14-Jan-20 22:04 37.711288 -122.216062 307 14ft 0kts
14-Jan-20 22:05 37.711288 -122.216062 307 14ft 0kts
14-Jan-20 22:06 37.710937 -122.215345 282 14ft 2kts
14-Jan-20 22:07 37.711122 -122.214903 216 14ft 0kts
14-Jan-20 22:08 37.711122 -122.214903 216 14ft 0kts
14-Jan-20 22:09 37.711122 -122.214903 216 14ft 0kts
14-Jan-20 22:10 37.709868 -122.215294 204 14ft 18kts
14-Jan-20 22:11 37.706168 -122.217353 131 14ft 13kts
14-Jan-20 22:12 37.702758 -122.213646 168 14ft 0kts
14-Jan-20 22:13 37.702756 -122.213645 168 14ft 0kts
14-Jan-20 22:14 37.702755 -122.213645 168 14ft 0kts
14-Jan-20 22:15 37.702754 -122.213645 168 14ft 0kts
14-Jan-20 22:16 37.703009 -122.216440 308 14ft 46kts
14-Jan-20 22:17 37.728905 -122.254753 310 2426ft 157kts
14-Jan-20 22:18 37.764166 -122.309386 309 4370ft 252kts
14-Jan-20 22:19 37.811817 -122.378075 328 8103ft 269kts
14-Jan-20 22:20 37.879995 -122.350087 45 11236ft 314kts
14-Jan-20 22:21 37.945908 -122.258107 43 13140ft 377kts
14-Jan-20 22:22 38.015328 -122.153317 38 15944ft 397kts
14-Jan-20 22:23 38.093621 -122.048014 41 18477ft 420kts
14-Jan-20 22:24 38.174044 -121.936048 41 20682ft 438kts
14-Jan-20 22:25 38.257326 -121.818441 41 22717ft 457kts
14-Jan-20 22:26 38.343458 -121.695612 42 24593ft 472kts
14-Jan-20 22:27 38.431733 -121.568953 42 25256ft 478kts
14-Jan-20 22:28 38.523969 -121.448001 37 25260ft 474kts
14-Jan-20 22:29 38.617422 -121.329211 38 25260ft 475kts
14-Jan-20 22:30 38.711014 -121.209299 37 25253ft 475kts
14-Jan-20 22:31 38.804398 -121.089450 38 25242ft 476kts
14-Jan-20 22:32 38.897230 -120.969478 37 25235ft 464kts
14-Jan-20 22:33 38.986512 -120.853563 37 24795ft 446kts
14-Jan-20 22:34 39.072597 -120.741356 37 22807ft 436kts
14-Jan-20 22:35 39.157001 -120.630925 38 20785ft 426kts
14-Jan-20 22:36 39.238859 -120.523797 38 18831ft 415kts
14-Jan-20 22:37 39.318595 -120.418567 38 17128ft 398kts
14-Jan-20 22:38 39.392321 -120.320920 38 16288ft 364kts
14-Jan-20 22:39 39.458066 -120.223961 43 14530ft 352kts
14-Jan-20 22:40 39.520056 -120.129898 43 12716ft 330kts
14-Jan-20 22:41 39.576043 -120.044308 43 11653ft 292kts
14-Jan-20 22:42 39.627905 -119.967518 43 10991ft 269kts
14-Jan-20 22:43 39.676946 -119.897205 43 10247ft 255kts
14-Jan-20 22:44 39.699038 -119.813164 85 8935ft 234kts
14-Jan-20 22:45 39.660011 -119.770747 174 7443ft 199kts
14-Jan-20 22:46 39.607424 -119.768627 178 6241ft 180kts
14-Jan-20 22:47 39.563110 -119.769320 178 5473ft 142kts
14-Jan-20 22:48 39.523140 -119.769092 178 4702ft 137kts
14-Jan-20 22:49 39.497883 -119.769745 254 4423ft 8kts
14-Jan-20 22:50 39.497886 -119.771396 295 4423ft 7kts
14-Jan-20 22:51 39.500146 -119.771594 359 4423ft 17kts
14-Jan-20 22:52 39.503356 -119.771597 359 4423ft 7kts
14-Jan-20 22:53 39.506101 -119.771629 350 4423ft 15kts
14-Jan-20 22:54 39.506015 -119.773387 183 4423ft 2kts
14-Jan-20 22:55 39.505987 -119.773389 182 4423ft 0kts
14-Jan-20 22:56 39.505987 -119.773389 182 4423ft 0kts

Navigation Log

Ident Type
Flight plan parsing failed, navigation log unavailable